Data for 04/19/2008

Time Sea-Level Adjusted Pressure Absolute Pressure Temperature Relative Humidity Dew Point   
(mb) (inHg) (mb) (inHg) (C) (F) (%) (C) (F)
00:05 1009 29.8 839 24.78 4.5 40.1 80 1.4 34.6
00:10 1009 29.8 839 24.78 4.7 40.5 79 1.4 34.6
00:15 1009 29.8 838 24.75 4.4 40 80 1.2 34.2
00:20 1009 29.8 839 24.78 4 39.2 81 1 33.9
00:25 1009 29.8 838 24.75 3.8 38.8 82 1 33.8
00:30 1009 29.8 838 24.75 3.7 38.7 83 1.1 33.9
00:35 1009 29.8 838 24.75 3.5 38.3 84 1 33.8
00:40 1009 29.8 838 24.75 3.4 38 84 1 33.7
00:45 1009 29.8 838 24.75 3.2 37.8 85 1 33.8
00:50 1009 29.8 838 24.75 3.2 37.8 86 1.1 33.9
00:55 1009 29.8 838 24.75 3.2 37.7 86 1.1 33.9
01:00 1009 29.8 838 24.75 3.1 37.6 86 1 33.8
01:05 1009 29.8 838 24.75 2.8 37 87 0.8 33.5
01:10 1009 29.8 838 24.75 2.6 36.6 87 0.7 33.2
01:15 1009 29.8 838 24.75 2.4 36.4 88 0.6 33.1
01:20 1009 29.8 838 24.75 2.5 36.5 88 0.6 33.1
01:25 1009 29.8 838 24.75 2.5 36.4 87 0.5 33
01:30 1009 29.8 838 24.75 2.4 36.3 87 0.5 32.8
01:35 1009 29.8 838 24.75 2.3 36.1 87 0.4 32.7
01:40 1009 29.8 838 24.75 2.1 35.9 88 0.3 32.5
01:45 1009 29.8 838 24.75 2.3 36.1 86 0.1 32.3
01:50 1009 29.8 838 24.75 2.5 36.5 84 0.1 32.2
01:55 1009 29.8 838 24.75 2.5 36.5 84 0 32.1
02:00 1009 29.8 838 24.75 2.4 36.3 84 -0 32
02:05 1009 29.8 838 24.75 2.5 36.5 82 -0.3 31.5
02:10 1009 29.8 838 24.75 2.6 36.7 80 -0.4 31.2
02:15 1009 29.8 838 24.75 2.7 36.9 79 -0.6 31
02:20 1008 29.77 838 24.75 2.8 37 78 -0.6 30.8
02:25 1008 29.77 838 24.75 2.7 36.8 78 -0.8 30.5
02:30 1008 29.77 838 24.75 2.7 36.8 78 -0.9 30.4
02:35 1008 29.77 838 24.75 3.1 37.7 75 -0.9 30.4
02:40 1008 29.77 838 24.75 3.5 38.2 74 -0.6 30.8
02:45 1008 29.77 838 24.75 3.1 37.6 76 -0.7 30.8
02:50 1008 29.77 838 24.75 2.8 37 78 -0.7 30.8
02:55 1008 29.77 837 24.72 2.5 36.4 79 -0.8 30.5
03:00 1008 29.77 837 24.72 2.3 36.1 80 -0.8 30.5
03:05 1008 29.77 837 24.72 2.1 35.9 80 -0.9 30.4
03:10 1008 29.77 837 24.72 2 35.7 81 -0.9 30.4
03:15 1008 29.77 837 24.72 2 35.7 81 -0.8 30.5
03:20 1008 29.77 837 24.72 2.2 35.9 81 -0.7 30.7
03:25 1008 29.77 837 24.72 2.4 36.3 82 -0.4 31.3
03:30 1008 29.77 837 24.72 2.5 36.5 83 -0.1 31.8
03:35 1008 29.77 837 24.72 2.6 36.8 85 0.3 32.6
03:40 1008 29.77 837 24.72 3.1 37.6 84 0.7 33.3
03:45 1008 29.77 837 24.72 3.3 38 85 1 33.8
03:50 1008 29.77 837 24.72 3.5 38.4 84 1.1 33.9
03:55 1008 29.77 837 24.72 3.7 38.6 83 1.1 33.9
04:00 1008 29.77 837 24.72 3.7 38.7 82 1 33.9
04:05 1008 29.77 837 24.72 3.8 38.8 82 1 33.8
04:10 1008 29.77 837 24.72 3.8 38.8 82 0.9 33.7
04:15 1008 29.77 837 24.72 3.8 38.9 82 1 33.8
04:20 1008 29.77 837 24.72 3.9 39 82 1 33.8
04:25 1008 29.77 837 24.72 4 39.2 81 1.1 33.9
04:30 1008 29.77 837 24.72 4.1 39.3 81 1 33.9
04:35 1008 29.77 837 24.72 4 39.3 80 1 33.8
04:40 1008 29.77 837 24.72 4.1 39.3 80 1 33.8
04:45 1008 29.77 837 24.72 4.1 39.4 80 1 33.8
04:50 1008 29.77 837 24.72 4.2 39.5 80 1.1 33.9
04:55 1008 29.77 837 24.72 4.2 39.5 80 1.1 33.9
05:00 1008 29.77 837 24.72 4.2 39.5 80 1 33.8
05:05 1008 29.77 837 24.72 4.3 39.8 79 1 33.9
05:10 1008 29.77 837 24.72 4.3 39.8 79 1.1 34
05:15 1008 29.77 837 24.72 4.5 40 77 0.8 33.5
05:20 1008 29.77 837 24.72 4.8 40.7 76 1 33.8
05:25 1008 29.77 837 24.72 4.9 40.8 76 1 33.7
05:30 1008 29.77 837 24.72 4.9 40.7 76 1 33.8
05:35 1008 29.77 837 24.72 4.6 40.2 77 0.9 33.7
05:40 1008 29.77 837 24.72 4.3 39.7 78 0.8 33.5
05:45 1008 29.77 837 24.72 4.1 39.3 80 0.9 33.6
05:50 1008 29.77 837 24.72 3.9 39 81 0.9 33.6
05:55 1008 29.77 837 24.72 3.8 38.8 82 1 33.8
06:00 1008 29.77 837 24.72 3.7 38.7 82 1 33.8
06:05 1008 29.77 837 24.72 3.6 38.5 83 1 33.8
06:10 1007 29.74 837 24.72 3.6 38.4 84 1 33.9
06:15 1007 29.74 837 24.72 3.7 38.7 83 1.1 34
06:20 1008 29.77 837 24.72 3.7 38.7 83 1.2 34.1
06:25 1007 29.74 837 24.72 3.7 38.6 84 1.2 34.1
06:30 1007 29.74 837 24.72 3.7 38.6 84 1.2 34.2
06:35 1007 29.74 837 24.72 3.8 38.9 84 1.3 34.3
06:40 1008 29.77 837 24.72 4 39.2 83 1.4 34.5
06:45 1008 29.77 837 24.72 4.1 39.3 83 1.4 34.6
06:50 1007 29.74 837 24.72 4 39.3 84 1.5 34.7
06:55 1007 29.74 837 24.72 4 39.2 84 1.6 34.9
07:00 1007 29.74 837 24.72 4 39.3 85 1.7 35
07:05 1007 29.74 837 24.72 4 39.3 85 1.7 35.1
07:10 1007 29.74 837 24.72 4 39.2 85 1.8 35.2
07:15 1008 29.77 837 24.72 4 39.2 85 1.8 35.2
07:20 1008 29.77 837 24.72 4 39.2 84 1.5 34.7
07:25 1007 29.74 837 24.72 3.7 38.7 83 1.2 34.1
07:30 1007 29.74 837 24.72 3.2 37.8 85 0.9 33.7
07:35 1008 29.77 837 24.72 3 37.4 86 0.8 33.4
07:40 1007 29.74 837 24.72 2.9 37.2 86 0.8 33.5
07:45 1007 29.74 837 24.72 2.9 37.3 86 0.9 33.6
07:50 1007 29.74 837 24.72 3.3 37.9 86 1.1 34.1
07:55 1007 29.74 836 24.69 3.5 38.2 85 1.2 34.2
08:00 1007 29.74 836 24.69 3.4 38.1 86 1.3 34.3
08:05 1007 29.74 836 24.69 4.1 39.5 84 1.7 35.1
08:10 1007 29.74 836 24.69 4.5 40.1 83 1.8 35.3
08:15 1007 29.74 836 24.69 4.6 40.3 82 1.8 35.3
08:20 1007 29.74 837 24.72 4.8 40.6 81 1.8 35.3
08:25 1007 29.74 837 24.72 5.1 41.1 80 1.8 35.3
08:30 1007 29.74 837 24.72 5.2 41.4 80 2 35.6
08:35 1007 29.74 837 24.72 5.1 41.1 79 1.8 35.2
08:40 1007 29.74 837 24.72 5.2 41.4 79 1.8 35.3
08:45 1007 29.74 837 24.72 5.3 41.5 78 1.8 35.2
08:50 1007 29.74 836 24.69 5.2 41.3 80 2 35.5
08:55 1007 29.74 836 24.69 5.5 41.9 79 2.1 35.8
09:00 1007 29.74 836 24.69 5.7 42.3 78 2.1 35.8
09:05 1007 29.74 837 24.72 5.8 42.5 78 2.4 36.3
09:10 1007 29.74 837 24.72 5.5 41.9 80 2.4 36.3
09:15 1007 29.74 837 24.72 5.2 41.4 81 2.3 36.1
09:20 1007 29.74 837 24.72 5 40.9 82 2.1 35.8
09:25 1007 29.74 836 24.69 4.8 40.6 82 2 35.7
09:30 1007 29.74 837 24.72 4.7 40.4 84 2.1 35.8
09:35 1007 29.74 836 24.69 4.7 40.5 83 2.1 35.8
09:40 1007 29.74 837 24.72 4.6 40.3 84 2.2 35.9
09:45 1007 29.74 837 24.72 4.6 40.3 85 2.3 36.1
09:50 1007 29.74 836 24.69 4.9 40.8 85 2.5 36.5
09:55 1007 29.74 836 24.69 5.3 41.6 83 2.7 36.9
10:00 1007 29.74 836 24.69 5.8 42.4 82 2.9 37.2
10:05 1007 29.74 836 24.69 5.7 42.3 82 2.9 37.2
10:10 1007 29.74 836 24.69 6 42.8 81 3 37.4
10:15 1007 29.74 836 24.69 6.4 43.6 80 3.1 37.7
10:20 1007 29.74 836 24.69 6.7 44.1 77 3 37.3
10:25 1007 29.74 836 24.69 7 44.6 75 2.9 37.3
10:30 1007 29.74 836 24.69 6.9 44.5 74 2.6 36.8
10:35 1007 29.74 837 24.72 6.3 43.3 76 2.3 36.1
10:40 1007 29.74 837 24.72 6 42.8 76 2.2 35.9
10:45 1008 29.77 837 24.72 6.2 43.1 75 2.1 35.8
10:50 1008 29.77 837 24.72 6.2 43.1 75 2.1 35.7
10:55 1008 29.77 837 24.72 6.2 43.2 74 1.9 35.5
11:00 1008 29.77 837 24.72 6.1 43 74 1.9 35.4
11:05 1008 29.77 837 24.72 6 42.9 74 1.8 35.2
11:10 1008 29.77 837 24.72 6.2 43.1 74 1.9 35.4
11:15 1007 29.74 837 24.72 6.2 43.2 73 1.8 35.2
11:20 1007 29.74 837 24.72 6.5 43.6 72 1.8 35.2
11:25 1007 29.74 837 24.72 6.6 43.9 71 1.7 35.1
11:30 1007 29.74 837 24.72 6.6 43.9 70 1.6 34.8
11:35 1007 29.74 836 24.69 6.5 43.7 69 1.4 34.4
11:40 1007 29.74 836 24.69 6.5 43.6 70 1.5 34.6
11:45 1007 29.74 836 24.69 6.8 44.2 69 1.5 34.7
11:50 1007 29.74 836 24.69 7 44.6 68 1.5 34.7
11:55 1007 29.74 836 24.69 7.3 45.1 67 1.6 34.8
12:00 1007 29.74 836 24.69 7.1 44.7 67 1.4 34.5
12:05 1007 29.74 836 24.69 6.5 43.8 69 1.3 34.3
12:10 1007 29.74 836 24.69 6.9 44.4 68 1.4 34.5
12:15 1007 29.74 836 24.69 6.8 44.3 68 1.3 34.3
12:20 1007 29.74 836 24.69 6.6 43.9 68 1.1 34
12:25 1007 29.74 836 24.69 7 44.7 67 1.3 34.3
12:30 1007 29.74 836 24.69 6.5 43.7 68 1 33.7
12:35 1007 29.74 836 24.69 5.8 42.5 70 0.8 33.4
12:40 1007 29.74 836 24.69 5.7 42.3 70 0.7 33.3
12:45 1007 29.74 836 24.69 5.7 42.3 71 0.8 33.4
12:50 1007 29.74 836 24.69 5.8 42.4 70 0.8 33.4
12:55 1007 29.74 836 24.69 5.6 42.2 71 0.8 33.4
13:00 1007 29.74 836 24.69 5.9 42.5 69 0.7 33.3
13:05 1007 29.74 836 24.69 6.1 43.1 68 0.8 33.4
13:10 1007 29.74 836 24.69 6.6 43.9 67 1 33.8
13:15 1007 29.74 836 24.69 7 44.5 66 1.1 34.1
13:20 1007 29.74 836 24.69 7 44.6 65 0.9 33.7
13:25 1007 29.74 836 24.69 7 44.5 65 0.9 33.6
13:30 1007 29.74 836 24.69 6.8 44.2 66 0.9 33.7
13:35 1007 29.74 836 24.69 6.4 43.5 67 0.8 33.4
13:40 1007 29.74 836 24.69 6.3 43.3 68 0.8 33.4
13:45 1007 29.74 836 24.69 6.5 43.8 67 0.9 33.7
13:50 1007 29.74 836 24.69 6.5 43.7 67 0.9 33.5
13:55 1007 29.74 836 24.69 6.4 43.5 67 0.8 33.4
14:00 1007 29.74 836 24.69 6.5 43.8 66 0.6 33.1
14:05 1007 29.74 836 24.69 6.5 43.8 66 0.7 33.2
14:10 1007 29.74 836 24.69 6.4 43.5 66 0.6 33.1
14:15 1006 29.71 836 24.69 6.2 43.2 66 0.5 32.8
14:20 1007 29.74 836 24.69 6.3 43.4 66 0.5 32.8
14:25 1007 29.74 836 24.69 6.5 43.7 65 0.5 32.9
14:30 1006 29.71 836 24.69 6.5 43.7 66 0.7 33.3
14:35 1006 29.71 836 24.69 6.5 43.6 66 0.7 33.2
14:40 1006 29.71 836 24.69 6.5 43.6 66 0.7 33.2
14:45 1006 29.71 835 24.66 6.6 43.9 66 0.6 33.2
14:50 1006 29.71 836 24.69 6.4 43.5 66 0.6 33.1
14:55 1006 29.71 835 24.66 6.4 43.5 67 0.7 33.2
15:00 1006 29.71 835 24.66 6.7 44.1 66 0.8 33.4
15:05 1006 29.71 835 24.66 6.8 44.3 64 0.6 33.2
15:10 1006 29.71 835 24.66 6.9 44.5 64 0.7 33.3
15:15 1006 29.71 835 24.66 6.9 44.4 65 0.7 33.2
15:20 1006 29.71 835 24.66 6.5 43.7 65 0.4 32.8
15:25 1006 29.71 835 24.66 6.2 43.1 65 0.1 32.3
15:30 1006 29.71 835 24.66 5.9 42.7 67 0.2 32.4
15:35 1006 29.71 835 24.66 6.2 43.2 64 0 32
15:40 1006 29.71 835 24.66 6.1 42.9 65 -0 31.9
15:45 1006 29.71 835 24.66 6.1 43 65 -0 31.9
15:50 1006 29.71 835 24.66 6.4 43.4 64 -0 31.9
15:55 1006 29.71 835 24.66 5.9 42.7 65 -0.2 31.7
16:00 1006 29.71 835 24.66 5.7 42.3 65 -0.3 31.4
16:05 1006 29.71 835 24.66 6 42.7 64 -0.2 31.6
16:10 1006 29.71 835 24.66 6.6 44 61 -0.3 31.4
16:15 1006 29.71 835 24.66 6.6 43.9 60 -0.5 31.1
16:20 1006 29.71 835 24.66 6.7 44.1 60 -0.4 31.3
16:25 1006 29.71 835 24.66 7.1 44.8 57 -0.7 30.8
16:30 1006 29.71 835 24.66 6.9 44.5 58 -0.7 30.8
16:35 1006 29.71 835 24.66 7.4 45.2 57 -0.7 30.8
16:40 1006 29.71 835 24.66 7.1 44.8 58 -0.6 30.9
16:45 1006 29.71 835 24.66 6.8 44.2 58 -0.9 30.5
16:50 1006 29.71 835 24.66 6.6 43.8 59 -0.8 30.6
16:55 1006 29.71 835 24.66 6.7 44 60 -0.6 30.9
17:00 1006 29.71 835 24.66 7.1 44.8 57 -0.8 30.6
17:05 1006 29.71 835 24.66 6.8 44.3 58 -0.9 30.4
17:10 1006 29.71 835 24.66 6.5 43.6 59 -1 30.1
17:15 1006 29.71 835 24.66 6 42.9 60 -1.2 29.9
17:20 1006 29.71 835 24.66 5.7 42.2 62 -1 30.2
17:25 1006 29.71 835 24.66 5.6 42.1 62 -1 30.1
17:30 1006 29.71 835 24.66 5.8 42.4 62 -1 30.2
17:35 1005 29.68 835 24.66 5.9 42.7 61 -1 30.2
17:40 1005 29.68 835 24.66 5.6 42.1 62 -1 30.1
17:45 1005 29.68 835 24.66 5.1 41.2 64 -1.1 30.1
17:50 1005 29.68 835 24.66 4.8 40.7 65 -1.1 30.1
17:55 1005 29.68 835 24.66 4.8 40.6 66 -1.1 30.1
18:00 1005 29.68 835 24.66 4.8 40.6 65 -1.2 29.9
18:05 1005 29.68 835 24.66 4.7 40.4 66 -1 30.1
18:10 1005 29.68 834 24.63 4.6 40.3 66 -1.1 30
18:15 1005 29.68 834 24.63 4.6 40.3 66 -1.1 29.9
18:20 1005 29.68 834 24.63 4.7 40.4 66 -1.1 30
18:25 1005 29.68 834 24.63 4.6 40.3 66 -1.1 30
18:30 1005 29.68 834 24.63 4.6 40.3 67 -1.1 30.1
18:35 1005 29.68 834 24.63 4.7 40.5 66 -1 30.1
18:40 1005 29.68 834 24.63 4.5 40.1 67 -1.1 30
18:45 1005 29.68 834 24.63 3.8 38.8 70 -1.2 29.8
18:50 1005 29.68 834 24.63 3.7 38.7 70 -1.2 29.8
18:55 1005 29.68 834 24.63 4.1 39.3 69 -1.1 30.1
19:00 1005 29.68 834 24.63 4 39.3 69 -1.1 30.1
19:05 1005 29.68 834 24.63 4.1 39.4 69 -1.1 30.1
19:10 1005 29.68 835 24.66 4.1 39.5 69 -1 30.2
19:15 1005 29.68 834 24.63 4.1 39.4 69 -1 30.2
19:20 1005 29.68 834 24.63 4.1 39.4 69 -1 30.2
19:25 1005 29.68 834 24.63 4.1 39.4 69 -1 30.2
19:30 1005 29.68 834 24.63 3.7 38.7 69 -1.3 29.6
19:35 1005 29.68 834 24.63 3.1 37.5 70 -1.9 28.5
19:40 1005 29.68 834 24.63 2.2 36 71 -2.5 27.6
19:45 1005 29.68 835 24.66 1.7 35.1 73 -2.7 27.2
19:50 1006 29.71 835 24.66 1.2 34.2 74 -3 26.7
19:55 1006 29.71 835 24.66 0.7 33.2 75 -3.3 26.1
20:00 1006 29.71 835 24.66 0.2 32.4 77 -3.4 25.9
20:05 1006 29.71 835 24.66 0 32 78 -3.4 25.9
20:10 1006 29.71 835 24.66 -0.2 31.6 78 -3.6 25.6
20:15 1006 29.71 835 24.66 -0.6 31 79 -3.8 25.2
20:20 1006 29.71 835 24.66 -0.8 30.5 80 -3.9 25
20:25 1006 29.71 835 24.66 -0.9 30.4 80 -3.9 25
20:30 1006 29.71 835 24.66 -1.1 30.1 80 -4 24.8
20:35 1006 29.71 836 24.69 -1.4 29.5 81 -4.3 24.3
20:40 1006 29.71 836 24.69 -1.6 29.1 82 -4.4 24.1
20:45 1006 29.71 836 24.69 -1.7 28.9 82 -4.4 24
20:50 1006 29.71 836 24.69 -2 28.4 83 -4.6 23.7
20:55 1006 29.71 836 24.69 -2.1 28.2 83 -4.6 23.7
21:00 1006 29.71 836 24.69 -2.2 28 84 -4.7 23.6
21:05 1006 29.71 836 24.69 -2.3 27.8 83 -4.8 23.4
21:10 1006 29.71 836 24.69 -2.4 27.7 83 -4.8 23.3
21:15 1007 29.74 836 24.69 -2.6 27.3 84 -4.9 23.2
21:20 1007 29.74 836 24.69 -2.6 27.4 84 -5 23.1
21:25 1007 29.74 836 24.69 -2.8 27 84 -5.1 22.8
21:30 1007 29.74 836 24.69 -2.7 27.1 84 -5.1 22.8
21:35 1007 29.74 836 24.69 -2.6 27.4 83 -5.1 22.8
21:40 1007 29.74 836 24.69 -2.6 27.4 83 -5.1 22.7
21:45 1007 29.74 836 24.69 -2.6 27.3 83 -5.2 22.7
21:50 1007 29.74 836 24.69 -2.7 27.2 83 -5.2 22.6
21:55 1006 29.71 836 24.69 -2.7 27.1 83 -5.3 22.5
22:00 1006 29.71 836 24.69 -2.8 26.9 83 -5.4 22.3
22:05 1006 29.71 836 24.69 -2.7 27.1 82 -5.4 22.3
22:10 1006 29.71 836 24.69 -2.6 27.3 82 -5.3 22.4
22:15 1006 29.71 836 24.69 -2.6 27.3 81 -5.4 22.3
22:20 1007 29.74 836 24.69 -2.8 27 82 -5.5 22.1
22:25 1006 29.71 836 24.69 -3.2 26.2 82 -5.9 21.4
22:30 1006 29.71 836 24.69 -3.5 25.7 83 -5.9 21.3
22:35 1006 29.71 836 24.69 -3.5 25.7 83 -5.9 21.4
22:40 1006 29.71 836 24.69 -3.3 26 82 -5.9 21.4
22:45 1006 29.71 836 24.69 -3.5 25.7 83 -6.1 21.1
22:50 1006 29.71 836 24.69 -3.8 25.2 83 -6.3 20.6
22:55 1007 29.74 836 24.69 -3.9 25 83 -6.4 20.4
23:00 1007 29.74 836 24.69 -3.9 25 82 -6.5 20.4
23:05 1007 29.74 836 24.69 -4 24.9 82 -6.5 20.3
23:10 1007 29.74 836 24.69 -4.1 24.6 83 -6.6 20.1
23:15 1007 29.74 836 24.69 -4.5 23.9 84 -6.8 19.8
23:20 1007 29.74 836 24.69 -4.7 23.5 85 -6.9 19.6
23:25 1007 29.74 836 24.69 -4.9 23.2 86 -6.9 19.6
23:30 1007 29.74 836 24.69 -5 23.1 86 -6.9 19.6
23:35 1007 29.74 836 24.69 -5 22.9 87 -6.9 19.6
23:40 1007 29.74 836 24.69 -5.2 22.6 88 -6.9 19.6
23:45 1006 29.71 836 24.69 -5.1 22.8 88 -6.8 19.8
23:50 1006 29.71 836 24.69 -5 23 88 -6.7 20
23:55 1006 29.71 836 24.69 -4.9 23.1 88 -6.7 20
24:00 1006 29.71 836 24.69 -5.2 22.7 89 -6.8 19.8